createdAt,value
2022-09-05T00:00:01.895Z,70.80
2022-09-05T00:02:49.184Z,70.80
2022-09-05T00:05:41.282Z,70.80
2022-09-05T00:08:25.436Z,70.90
2022-09-05T00:11:39.489Z,71.10
2022-09-05T00:14:09.132Z,71.20
2022-09-05T00:16:58.045Z,71.40
2022-09-05T00:24:19.943Z,71.50
2022-09-05T00:24:28.566Z,71.60
2022-09-05T00:26:00.572Z,71.70
2022-09-05T00:28:40.766Z,71.80
2022-09-05T00:31:54.898Z,72.00
2022-09-05T00:34:38.786Z,72.00
2022-09-05T00:37:29.157Z,72.20
2022-09-05T00:40:18.576Z,72.20
2022-09-05T00:42:51.185Z,72.30
2022-09-05T00:45:28.500Z,72.30
2022-09-05T00:48:05.065Z,72.40
2022-09-05T00:50:40.351Z,72.50
2022-09-05T00:53:15.939Z,72.60
2022-09-05T00:55:59.129Z,72.70
2022-09-05T00:58:57.921Z,72.50
2022-09-05T01:01:33.391Z,72.70
2022-09-05T01:04:17.051Z,72.90
2022-09-05T01:07:01.994Z,72.90
2022-09-05T01:09:51.267Z,73.10
2022-09-05T01:12:36.126Z,73.30
2022-09-05T01:15:20.798Z,73.40
2022-09-05T01:18:02.244Z,73.50
2022-09-05T01:20:41.883Z,73.50
2022-09-05T01:23:25.991Z,73.70
2022-09-05T01:26:07.745Z,73.80
2022-09-05T01:29:16.558Z,73.90
2022-09-05T01:31:38.765Z,74.00
2022-09-05T01:34:16.904Z,74.00
2022-09-05T01:37:05.153Z,74.00
2022-09-05T01:40:12.589Z,74.00
2022-09-05T01:42:38.879Z,74.10
2022-09-05T01:45:17.957Z,74.10
2022-09-05T01:47:53.162Z,74.20
2022-09-05T01:50:35.955Z,74.30
2022-09-05T01:53:25.825Z,74.30
2022-09-05T01:56:30.791Z,74.50
2022-09-05T01:59:18.080Z,74.60
2022-09-05T02:02:06.426Z,74.80
2022-09-05T02:04:52.620Z,74.80
2022-09-05T02:07:35.198Z,74.90
2022-09-05T02:10:31.177Z,75.00
2022-09-05T02:13:11.459Z,75.00
2022-09-05T02:15:59.299Z,75.10
2022-09-05T02:18:45.265Z,75.10
2022-09-05T02:21:22.639Z,75.30
2022-09-05T02:24:07.934Z,75.30
2022-09-05T02:26:47.426Z,75.40
2022-09-05T02:29:28.828Z,75.40
2022-09-05T02:32:04.752Z,75.50
2022-09-05T02:34:42.080Z,75.60
2022-09-05T02:37:37.145Z,75.70
2022-09-05T02:43:41.008Z,75.70
2022-09-05T02:45:12.929Z,75.80
2022-09-05T02:46:13.792Z,75.80
2022-09-05T02:48:54.347Z,75.90
2022-09-05T02:57:24.270Z,75.90
2022-09-05T02:57:35.594Z,75.90
2022-09-05T02:58:05.332Z,75.90
2022-09-05T03:00:20.182Z,76.00
2022-09-05T03:03:19.587Z,76.10
2022-09-05T03:05:53.250Z,76.20
2022-09-05T03:08:38.229Z,76.20
2022-09-05T03:11:37.709Z,76.30
2022-09-05T03:14:44.621Z,76.30
2022-09-05T03:17:42.660Z,76.40
2022-09-05T03:20:46.999Z,76.50
2022-09-05T03:24:02.474Z,76.50
2022-09-05T03:27:01.089Z,76.60
2022-09-05T03:29:58.766Z,76.70
2022-09-05T03:33:10.709Z,76.80
2022-09-05T03:36:18.916Z,76.80
2022-09-05T03:39:26.537Z,76.80
2022-09-05T03:42:15.828Z,76.90
2022-09-05T03:45:06.826Z,76.90
2022-09-05T03:48:02.379Z,76.90
2022-09-05T03:57:07.465Z,76.90
2022-09-05T03:57:15.838Z,77.00
2022-09-05T03:57:42.795Z,76.90
2022-09-05T04:00:21.928Z,77.00
2022-09-05T04:08:07.091Z,77.00
2022-09-05T04:08:17.304Z,76.90
2022-09-05T04:08:52.671Z,77.00
2022-09-05T04:11:30.701Z,76.90
2022-09-05T04:14:03.874Z,77.00
2022-09-05T04:16:43.511Z,77.10
2022-09-05T04:19:18.166Z,77.20
2022-09-05T04:21:53.765Z,77.10
2022-09-05T04:24:29.598Z,77.10
2022-09-05T04:27:36.357Z,77.10
2022-09-05T04:30:39.462Z,77.20
2022-09-05T04:33:20.473Z,77.30
2022-09-05T04:35:59.675Z,77.50
2022-09-05T04:38:40.481Z,77.50
2022-09-05T04:41:11.940Z,77.50
2022-09-05T04:43:46.170Z,77.40
2022-09-05T04:46:24.670Z,77.50
2022-09-05T04:49:01.268Z,77.60
2022-09-05T04:52:02.436Z,77.60
2022-09-05T04:54:37.995Z,77.70
2022-09-05T04:57:19.800Z,77.70
2022-09-05T05:05:53.776Z,77.70
2022-09-05T05:06:05.309Z,77.70
2022-09-05T05:06:11.040Z,77.60
2022-09-05T05:08:47.873Z,77.60
2022-09-05T05:16:29.853Z,77.70
2022-09-05T05:18:08.471Z,77.70
2022-09-05T05:18:12.789Z,77.70
2022-09-05T05:20:41.830Z,77.80
2022-09-05T05:23:07.911Z,77.80
2022-09-05T05:25:49.267Z,77.80
2022-09-05T05:28:25.289Z,77.80
2022-09-05T05:31:01.494Z,77.70
2022-09-05T05:33:34.773Z,77.70
2022-09-05T05:36:08.443Z,77.70
2022-09-05T05:38:44.882Z,77.70
2022-09-05T05:41:22.490Z,77.60
2022-09-05T05:43:52.254Z,77.70
2022-09-05T05:46:31.199Z,77.70
2022-09-05T05:49:17.968Z,77.70
2022-09-05T05:52:05.144Z,77.70
2022-09-05T05:54:47.961Z,77.60
2022-09-05T05:57:35.122Z,77.60
2022-09-05T06:00:14.901Z,77.50
2022-09-05T06:03:26.614Z,77.40
2022-09-05T06:06:20.697Z,77.30
2022-09-05T06:14:37.485Z,77.30
2022-09-05T06:15:05.621Z,77.30
2022-09-05T06:16:34.161Z,77.20
2022-09-05T06:22:04.751Z,77.00
2022-09-05T06:23:03.601Z,76.80
2022-09-05T06:25:52.803Z,76.60
2022-09-05T06:28:30.643Z,76.30
2022-09-05T06:31:30.166Z,76.20
2022-09-05T06:34:29.099Z,76.00
2022-09-05T06:37:11.389Z,75.80
2022-09-05T06:39:58.682Z,75.70
2022-09-05T06:42:42.621Z,75.40
2022-09-05T06:45:28.083Z,75.20
2022-09-05T06:48:06.130Z,74.90
2022-09-05T06:51:19.680Z,74.70
2022-09-05T06:54:07.660Z,74.50
2022-09-05T06:57:15.500Z,74.00
2022-09-05T07:00:21.691Z,73.60
2022-09-05T07:03:02.944Z,73.20
2022-09-05T07:05:44.442Z,72.80
2022-09-05T07:08:39.288Z,72.50
2022-09-05T07:11:15.780Z,72.00
2022-09-05T07:13:55.351Z,71.60
2022-09-05T07:16:37.875Z,71.10
2022-09-05T07:19:27.278Z,70.70
2022-09-05T07:22:47.133Z,70.30
2022-09-05T07:25:18.389Z,69.90
2022-09-05T07:28:25.730Z,69.40
2022-09-05T07:30:49.535Z,69.00
2022-09-05T07:33:21.352Z,68.70
2022-09-05T07:35:52.014Z,68.30
2022-09-05T07:38:35.279Z,68.10
2022-09-05T07:41:22.055Z,67.70
2022-09-05T07:43:55.108Z,67.50
2022-09-05T07:46:27.400Z,67.30
2022-09-05T07:49:02.855Z,66.80
2022-09-05T07:56:49.937Z,66.40
2022-09-05T07:57:09.779Z,65.90
2022-09-05T07:57:30.107Z,65.40
2022-09-05T08:00:05.275Z,64.90
2022-09-05T08:02:33.506Z,64.70
2022-09-05T08:05:05.428Z,64.50
2022-09-05T08:07:49.636Z,64.30
2022-09-05T08:10:35.911Z,64.00
2022-09-05T08:13:24.425Z,63.60
2022-09-05T08:16:10.797Z,63.40
2022-09-05T08:18:50.265Z,62.90
2022-09-05T08:21:27.580Z,62.60
2022-09-05T08:24:13.828Z,62.20
2022-09-05T08:26:47.211Z,61.80
2022-09-05T08:29:27.199Z,61.40
2022-09-05T08:32:01.908Z,61.10
2022-09-05T08:34:45.167Z,60.80
2022-09-05T08:37:20.940Z,60.50
2022-09-05T08:39:59.089Z,60.10
2022-09-05T08:43:30.899Z,60.20
2022-09-05T08:46:45.031Z,59.90
2022-09-05T08:48:53.979Z,58.80
2022-09-05T08:51:30.155Z,59.00
2022-09-05T08:54:17.078Z,58.70
2022-09-05T08:56:58.417Z,58.20
2022-09-05T08:59:36.743Z,57.80
2022-09-05T09:02:58.284Z,57.60
2022-09-05T09:06:13.710Z,57.40
2022-09-05T09:08:55.715Z,57.20
2022-09-05T09:11:34.277Z,57.30
2022-09-05T09:14:36.787Z,57.50
2022-09-05T09:17:20.465Z,57.50
2022-09-05T09:19:54.008Z,57.70
2022-09-05T09:22:35.909Z,57.90
2022-09-05T09:25:14.915Z,57.80
2022-09-05T09:28:49.084Z,58.30
2022-09-05T09:31:46.664Z,58.50
2022-09-05T09:34:47.443Z,57.50
2022-09-05T09:37:51.766Z,57.20
2022-09-05T09:40:52.276Z,56.80
2022-09-05T09:43:33.188Z,56.60
2022-09-05T09:46:17.872Z,56.20
2022-09-05T09:49:09.563Z,55.60
2022-09-05T09:52:22.104Z,55.40
2022-09-05T09:55:41.163Z,55.30
2022-09-05T09:58:43.115Z,54.80
2022-09-05T10:01:36.688Z,55.00
2022-09-05T10:10:37.856Z,54.90
2022-09-05T10:10:58.214Z,54.50
2022-09-05T10:14:49.233Z,53.60
2022-09-05T10:18:09.232Z,53.30
2022-09-05T10:21:16.044Z,52.60
2022-09-05T10:24:03.990Z,52.10
2022-09-05T10:27:11.320Z,51.40
2022-09-05T10:30:07.217Z,51.60
2022-09-05T10:35:10.838Z,51.30
2022-09-05T10:35:52.375Z,50.60
2022-09-05T10:38:32.766Z,51.10
2022-09-05T10:41:22.613Z,50.20
2022-09-05T10:43:55.552Z,49.60
2022-09-05T10:46:50.271Z,49.60
2022-09-05T10:49:30.015Z,49.30
2022-09-05T10:52:18.426Z,49.60
2022-09-05T10:55:14.954Z,49.10
2022-09-05T10:57:57.945Z,49.10
2022-09-05T11:02:27.589Z,48.60
2022-09-05T11:03:45.336Z,47.90
2022-09-05T11:06:16.636Z,47.60
2022-09-05T11:09:00.986Z,47.20
2022-09-05T11:11:35.146Z,46.70
2022-09-05T11:14:26.192Z,46.80
2022-09-05T11:17:00.191Z,46.70
2022-09-05T11:19:37.222Z,46.00
2022-09-05T11:22:22.259Z,45.80
2022-09-05T11:24:57.145Z,45.90
2022-09-05T11:27:34.008Z,45.80
2022-09-05T11:30:06.985Z,45.60
2022-09-05T11:36:44.327Z,45.40
2022-09-05T11:39:56.731Z,44.40
2022-09-05T11:40:00.164Z,45.10
2022-09-05T11:42:33.179Z,44.20
2022-09-05T11:45:38.886Z,44.00
2022-09-05T11:48:26.322Z,43.90
2022-09-05T11:51:12.449Z,43.90
2022-09-05T11:53:59.669Z,43.80
2022-09-05T11:57:32.138Z,43.70
2022-09-05T12:00:33.125Z,43.70
2022-09-05T12:03:59.027Z,43.80
2022-09-05T12:06:57.254Z,43.50
2022-09-05T12:09:37.842Z,43.60
2022-09-05T12:12:38.556Z,43.70
2022-09-05T12:15:25.696Z,43.40
2022-09-05T12:18:12.635Z,43.30
2022-09-05T12:20:57.191Z,43.30
2022-09-05T12:24:12.746Z,43.40
2022-09-05T12:27:36.441Z,43.90
2022-09-05T12:29:37.367Z,44.30
2022-09-05T12:33:28.343Z,44.60
2022-09-05T12:36:12.758Z,44.60
2022-09-05T12:40:08.662Z,44.60
2022-09-05T12:41:36.536Z,44.60
2022-09-05T12:44:42.556Z,44.40
2022-09-05T12:47:18.713Z,43.60
2022-09-05T12:50:02.607Z,43.50
2022-09-05T12:52:42.560Z,43.20
2022-09-05T12:55:20.605Z,42.80
2022-09-05T13:02:55.893Z,42.10
2022-09-05T13:03:09.381Z,42.10
2022-09-05T13:04:05.882Z,41.80
2022-09-05T13:06:39.224Z,41.70
2022-09-05T13:09:11.599Z,41.70
2022-09-05T13:14:52.984Z,41.40
2022-09-05T13:15:12.356Z,41.10
2022-09-05T13:17:48.759Z,40.90
2022-09-05T13:20:25.882Z,40.70
2022-09-05T13:22:55.597Z,40.40
2022-09-05T13:25:27.247Z,40.40
2022-09-05T13:28:03.465Z,40.50
2022-09-05T13:35:11.015Z,40.30
2022-09-05T13:38:03.038Z,39.60
2022-09-05T13:38:10.026Z,39.40
2022-09-05T13:39:14.009Z,39.60
2022-09-05T13:41:49.427Z,39.10
2022-09-05T13:44:25.591Z,38.80
2022-09-05T13:47:00.911Z,39.40
2022-09-05T13:49:37.206Z,39.10
2022-09-05T13:52:26.343Z,38.70
2022-09-05T13:55:10.667Z,38.40
2022-09-05T13:57:42.753Z,37.80
2022-09-05T14:00:52.430Z,37.30
2022-09-05T14:03:55.711Z,37.10
2022-09-05T14:10:38.191Z,37.00
2022-09-05T14:13:11.598Z,36.80
2022-09-05T14:15:52.240Z,37.00
2022-09-05T14:18:24.845Z,36.70
2022-09-05T14:21:16.596Z,36.60
2022-09-05T14:23:53.730Z,36.60
2022-09-05T14:26:30.889Z,36.70
2022-09-05T14:29:07.351Z,36.50
2022-09-05T14:36:58.547Z,36.40
2022-09-05T14:37:40.491Z,35.70
2022-09-05T14:38:09.258Z,35.30
2022-09-05T14:41:21.039Z,35.60
2022-09-05T14:44:24.662Z,35.00
2022-09-05T14:47:10.906Z,34.50
2022-09-05T14:50:27.747Z,34.30
2022-09-05T14:55:58.778Z,34.50
2022-09-05T15:02:44.134Z,34.40
2022-09-05T15:02:49.658Z,34.40
2022-09-05T15:04:45.673Z,33.80
2022-09-05T15:07:20.799Z,33.30
2022-09-05T15:12:17.099Z,33.10
2022-09-05T15:13:00.663Z,33.00
2022-09-05T15:15:31.691Z,32.40
2022-09-05T15:18:07.538Z,32.90
2022-09-05T15:20:38.467Z,32.70
2022-09-05T15:23:16.624Z,32.60
2022-09-05T15:25:48.246Z,32.20
2022-09-05T15:28:21.650Z,32.20
2022-09-05T15:31:01.112Z,32.00
2022-09-05T15:33:32.538Z,31.70
2022-09-05T15:36:01.814Z,31.60
2022-09-05T15:38:46.253Z,31.60
2022-09-05T15:41:24.355Z,31.70
2022-09-05T15:44:00.361Z,31.90
2022-09-05T15:46:51.425Z,31.70
2022-09-05T15:49:32.432Z,31.40
2022-09-05T15:52:03.887Z,30.70
2022-09-05T15:54:38.781Z,29.20
2022-09-05T15:57:17.489Z,27.40
2022-09-05T15:59:49.541Z,25.90
2022-09-05T16:02:22.296Z,25.40
2022-09-05T16:10:31.697Z,24.50
2022-09-05T16:10:49.020Z,24.80
2022-09-05T16:11:21.310Z,27.10
2022-09-05T16:13:38.071Z,28.60
2022-09-05T16:22:51.151Z,26.80
2022-09-05T16:23:15.915Z,28.70
2022-09-05T16:23:27.191Z,30.20
2022-09-05T16:25:09.805Z,31.50
2022-09-05T16:27:45.555Z,32.50
2022-09-05T16:30:20.867Z,33.40
2022-09-05T16:32:51.831Z,34.00
2022-09-05T16:35:24.902Z,34.70
2022-09-05T16:38:04.159Z,35.80
2022-09-05T16:40:35.863Z,37.00
2022-09-05T16:43:08.206Z,37.80
2022-09-05T16:45:45.760Z,38.60
2022-09-05T16:48:54.820Z,39.20
2022-09-05T16:51:35.849Z,39.90
2022-09-05T16:54:11.146Z,40.60
2022-09-05T16:56:43.146Z,41.20
2022-09-05T16:59:15.814Z,41.90
2022-09-05T17:02:06.323Z,42.30
2022-09-05T17:05:04.467Z,42.80
2022-09-05T17:07:58.737Z,43.40
2022-09-05T17:10:32.834Z,43.90
2022-09-05T17:13:02.903Z,44.40
2022-09-05T17:15:35.886Z,44.80
2022-09-05T17:18:22.565Z,45.20
2022-09-05T17:20:56.968Z,45.60
2022-09-05T17:29:27.401Z,46.00
2022-09-05T17:29:28.326Z,46.40
2022-09-05T17:31:14.536Z,46.80
2022-09-05T17:32:47.142Z,47.30
2022-09-05T17:35:20.340Z,47.70
2022-09-05T17:38:15.992Z,48.10
2022-09-05T17:41:17.142Z,48.50
2022-09-05T17:43:58.040Z,49.00
2022-09-05T17:46:29.765Z,49.30
2022-09-05T17:49:19.796Z,49.60
2022-09-05T17:52:18.250Z,50.00
2022-09-05T17:54:49.553Z,50.40
2022-09-05T17:57:48.984Z,50.50
2022-09-05T18:01:05.475Z,50.70
2022-09-05T18:04:34.882Z,50.80
2022-09-05T18:07:42.792Z,50.80
2022-09-05T18:16:12.928Z,50.70
2022-09-05T18:19:33.468Z,50.70
2022-09-05T18:21:54.264Z,50.90
2022-09-05T18:24:33.386Z,51.20
2022-09-05T18:27:43.808Z,51.50
2022-09-05T18:30:07.196Z,51.70
2022-09-05T18:32:41.551Z,51.80
2022-09-05T18:35:36.744Z,51.60
2022-09-05T18:38:51.710Z,51.60
2022-09-05T18:41:22.136Z,51.60
2022-09-05T18:44:13.061Z,51.60
2022-09-05T18:46:47.323Z,51.70
2022-09-05T18:50:23.259Z,52.00
2022-09-05T18:52:23.598Z,52.00
2022-09-05T18:55:30.071Z,52.00
2022-09-05T18:57:57.947Z,52.30
2022-09-05T19:00:46.596Z,51.90
2022-09-05T19:03:18.995Z,51.90
2022-09-05T19:05:51.784Z,51.90
2022-09-05T19:08:28.874Z,51.90
2022-09-05T19:11:28.123Z,52.00
2022-09-05T19:14:16.255Z,52.20
2022-09-05T19:16:48.504Z,52.40
2022-09-05T19:19:24.977Z,52.50
2022-09-05T19:22:36.102Z,52.60
2022-09-05T19:24:46.948Z,52.90
2022-09-05T19:28:26.332Z,53.20
2022-09-05T19:36:45.840Z,53.30
2022-09-05T19:36:54.645Z,53.60
2022-09-05T19:37:07.576Z,53.40
2022-09-05T19:40:07.711Z,53.90
2022-09-05T19:47:34.928Z,54.20
2022-09-05T19:47:39.126Z,54.60
2022-09-05T19:47:57.561Z,55.00
2022-09-05T19:50:21.878Z,55.10
2022-09-05T19:52:53.319Z,55.50
2022-09-05T19:55:23.972Z,56.40
2022-09-05T19:57:58.316Z,57.00
2022-09-05T20:00:50.428Z,57.40
2022-09-05T20:03:39.542Z,58.00
2022-09-05T20:06:29.357Z,58.30
2022-09-05T20:09:15.931Z,58.30
2022-09-05T20:11:49.585Z,58.40
2022-09-05T20:14:24.161Z,58.80
2022-09-05T20:16:57.085Z,59.10
2022-09-05T20:19:32.050Z,59.30
2022-09-05T20:22:46.694Z,59.30
2022-09-05T20:25:01.739Z,59.30
2022-09-05T20:27:31.553Z,59.10
2022-09-05T20:30:02.374Z,59.20
2022-09-05T20:32:39.648Z,59.40
2022-09-05T20:38:58.354Z,59.50
2022-09-05T20:43:09.907Z,59.10
2022-09-05T20:43:24.767Z,58.80
2022-09-05T20:43:53.545Z,58.80
2022-09-05T20:52:42.371Z,58.70
2022-09-05T20:54:06.414Z,58.80
2022-09-05T20:54:16.437Z,58.70
2022-09-05T20:55:40.334Z,58.90
2022-09-05T20:58:12.020Z,59.10
2022-09-05T21:01:20.440Z,59.40
2022-09-05T21:03:36.759Z,59.50
2022-09-05T21:06:20.041Z,59.60
2022-09-05T21:08:48.364Z,59.80
2022-09-05T21:11:17.296Z,59.90
2022-09-05T21:13:53.215Z,59.60
2022-09-05T21:16:27.964Z,59.60
2022-09-05T21:18:56.360Z,59.60
2022-09-05T21:21:29.891Z,59.60
2022-09-05T21:24:15.840Z,59.70
2022-09-05T21:26:44.376Z,59.80
2022-09-05T21:29:17.628Z,60.00
2022-09-05T21:31:54.842Z,60.00
2022-09-05T21:34:28.092Z,60.10
2022-09-05T21:37:07.215Z,60.30
2022-09-05T21:39:40.365Z,60.40
2022-09-05T21:45:15.461Z,60.70
2022-09-05T21:45:50.548Z,60.60
2022-09-05T21:48:04.933Z,60.80
2022-09-05T21:50:37.693Z,61.00
2022-09-05T21:53:32.477Z,61.20
2022-09-05T21:59:26.444Z,61.30
2022-09-05T21:59:27.448Z,61.40
2022-09-05T22:01:51.912Z,61.60
2022-09-05T22:04:22.111Z,61.80
2022-09-05T22:06:53.148Z,61.90
2022-09-05T22:09:24.198Z,62.00
2022-09-05T22:11:52.730Z,62.20
2022-09-05T22:14:23.462Z,62.20
2022-09-05T22:16:54.533Z,62.30
2022-09-05T22:19:37.240Z,62.40
2022-09-05T22:22:15.804Z,62.50
2022-09-05T22:24:50.027Z,62.60
2022-09-05T22:27:20.126Z,62.70
2022-09-05T22:29:50.842Z,63.00
2022-09-05T22:32:33.860Z,63.10
2022-09-05T22:35:16.020Z,63.20
2022-09-05T22:37:59.348Z,63.40
2022-09-05T22:40:31.048Z,63.60
2022-09-05T22:43:00.788Z,63.80
2022-09-05T22:45:29.991Z,63.70
2022-09-05T22:47:58.186Z,63.70
2022-09-05T22:50:27.134Z,63.90
2022-09-05T22:52:55.359Z,64.10
2022-09-05T22:55:23.542Z,64.20
2022-09-05T22:57:53.091Z,64.40
2022-09-05T23:00:21.437Z,64.50
2022-09-05T23:02:52.823Z,64.60
2022-09-05T23:05:22.761Z,64.70
2022-09-05T23:07:51.014Z,64.70
2022-09-05T23:10:19.376Z,64.80
2022-09-05T23:12:47.595Z,64.80
2022-09-05T23:15:17.537Z,64.80
2022-09-05T23:17:45.987Z,65.00
2022-09-05T23:20:14.198Z,65.10
2022-09-05T23:22:43.166Z,65.10
2022-09-05T23:25:11.977Z,65.00
2022-09-05T23:27:40.383Z,65.10
2022-09-05T23:30:09.925Z,65.20
2022-09-05T23:32:45.306Z,65.30
2022-09-05T23:35:13.815Z,65.40
2022-09-05T23:37:44.288Z,65.50
2022-09-05T23:40:13.716Z,65.70
2022-09-05T23:42:42.272Z,65.80
2022-09-05T23:45:11.498Z,66.10
2022-09-05T23:47:41.127Z,66.20
2022-09-05T23:50:11.953Z,66.30
2022-09-05T23:52:40.819Z,66.40
2022-09-05T23:55:09.968Z,66.60
2022-09-05T23:57:38.458Z,66.60
